createdAt,value
2023-02-18T00:00:24.660Z,9.63
2023-02-18T00:02:58.678Z,7.47
2023-02-18T00:05:29.248Z,8.55
2023-02-18T00:08:01.964Z,9.18
2023-02-18T00:10:33.242Z,9.90
2023-02-18T00:13:02.223Z,8.90
2023-02-18T00:15:35.521Z,9.40
2023-02-18T00:18:05.228Z,10.05
2023-02-18T00:20:39.215Z,9.57
2023-02-18T00:23:09.255Z,10.73
2023-02-18T00:25:38.610Z,9.00
2023-02-18T00:28:09.777Z,9.00
2023-02-18T00:30:46.202Z,9.50
2023-02-18T00:33:15.372Z,9.90
2023-02-18T00:35:50.795Z,8.50
2023-02-18T00:38:22.178Z,8.23
2023-02-18T00:40:56.393Z,9.20
2023-02-18T00:43:28.257Z,10.13
2023-02-18T00:45:57.320Z,9.77
2023-02-18T00:48:28.459Z,8.80
2023-02-18T00:51:01.240Z,10.18
2023-02-18T00:53:40.754Z,10.52
2023-02-18T00:56:14.197Z,9.70
2023-02-18T00:58:49.894Z,10.18
2023-02-18T01:01:26.427Z,10.70
2023-02-18T01:04:01.425Z,10.32
2023-02-18T01:06:33.874Z,9.60
2023-02-18T01:09:10.211Z,9.75
2023-02-18T01:11:43.790Z,10.15
2023-02-18T01:14:12.827Z,10.48
2023-02-18T01:16:44.479Z,11.50
2023-02-18T01:19:18.290Z,12.20
2023-02-18T01:21:49.448Z,12.00
2023-02-18T01:24:19.654Z,12.95
2023-02-18T01:26:51.747Z,11.27
2023-02-18T01:29:21.324Z,11.60
2023-02-18T01:31:50.517Z,12.25
2023-02-18T01:34:19.560Z,13.02
2023-02-18T01:36:48.346Z,12.25
2023-02-18T01:39:22.114Z,13.63
2023-02-18T01:41:54.367Z,13.45
2023-02-18T01:44:27.710Z,12.77
2023-02-18T01:47:00.434Z,13.63
2023-02-18T01:49:39.553Z,13.38
2023-02-18T01:52:25.891Z,12.45
2023-02-18T01:54:58.312Z,12.55
2023-02-18T01:57:39.702Z,12.68
2023-02-18T02:00:16.272Z,12.90
2023-02-18T02:02:50.765Z,12.45
2023-02-18T02:05:23.342Z,14.18
2023-02-18T02:07:55.882Z,13.30
2023-02-18T02:10:50.920Z,13.07
2023-02-18T02:13:31.208Z,12.95
2023-02-18T02:16:11.902Z,12.88
2023-02-18T02:19:25.307Z,14.30
2023-02-18T02:22:05.694Z,12.73
2023-02-18T02:25:10.623Z,13.77
2023-02-18T02:28:05.415Z,13.02
2023-02-18T02:30:48.777Z,10.35
2023-02-18T02:33:57.844Z,12.13
2023-02-18T02:36:39.768Z,12.52
2023-02-18T02:39:30.009Z,12.90
2023-02-18T02:42:18.274Z,11.57
2023-02-18T02:45:31.798Z,11.38
2023-02-18T02:48:38.478Z,13.38
2023-02-18T02:51:41.163Z,11.98
2023-02-18T02:54:19.126Z,12.70
2023-02-18T02:57:08.363Z,13.23
2023-02-18T02:59:43.897Z,12.75
2023-02-18T03:02:55.556Z,12.38
2023-02-18T03:05:45.102Z,11.93
2023-02-18T03:08:46.035Z,13.35
2023-02-18T03:11:21.044Z,13.23
2023-02-18T03:14:16.767Z,11.43
2023-02-18T03:16:50.150Z,13.40
2023-02-18T03:19:43.526Z,12.27
2023-02-18T03:22:27.820Z,13.52
2023-02-18T03:25:00.856Z,12.70
2023-02-18T03:27:45.200Z,13.10
2023-02-18T03:30:40.981Z,13.20
2023-02-18T03:33:17.122Z,12.50
2023-02-18T03:35:57.246Z,14.23
2023-02-18T03:38:36.474Z,14.20
2023-02-18T03:41:08.319Z,13.80
2023-02-18T03:43:42.233Z,14.00
2023-02-18T03:46:15.314Z,14.40
2023-02-18T03:48:52.284Z,14.10
2023-02-18T03:51:25.536Z,13.32
2023-02-18T03:53:54.649Z,13.52
2023-02-18T03:56:28.912Z,13.88
2023-02-18T03:59:03.491Z,13.75
2023-02-18T04:01:37.120Z,14.27
2023-02-18T04:04:09.698Z,13.95
2023-02-18T04:06:38.601Z,12.38
2023-02-18T04:09:09.759Z,12.10
2023-02-18T04:11:44.279Z,13.95
2023-02-18T04:14:20.174Z,14.52
2023-02-18T04:16:51.800Z,14.73
2023-02-18T04:19:23.206Z,13.50
2023-02-18T04:21:54.580Z,13.88
2023-02-18T04:24:26.297Z,15.80
2023-02-18T04:26:58.498Z,14.30
2023-02-18T04:29:29.842Z,14.75
2023-02-18T04:32:02.262Z,14.60
2023-02-18T04:34:33.989Z,15.48
2023-02-18T04:37:05.291Z,15.25
2023-02-18T04:39:40.145Z,16.13
2023-02-18T04:42:10.786Z,15.43
2023-02-18T04:44:41.979Z,16.30
2023-02-18T04:47:15.295Z,16.33
2023-02-18T04:49:46.598Z,16.15
2023-02-18T04:52:15.446Z,15.27
2023-02-18T04:54:44.222Z,15.70
2023-02-18T04:57:20.186Z,16.88
2023-02-18T04:59:51.453Z,15.63
2023-02-18T05:02:23.305Z,13.77
2023-02-18T05:04:58.099Z,15.00
2023-02-18T05:07:30.111Z,15.90
2023-02-18T05:10:02.222Z,15.57
2023-02-18T05:12:31.470Z,16.48
2023-02-18T05:15:02.751Z,17.40
2023-02-18T05:17:31.717Z,14.88
2023-02-18T05:20:03.851Z,16.50
2023-02-18T05:22:36.034Z,16.92
2023-02-18T05:25:12.570Z,16.42
2023-02-18T05:27:46.258Z,15.30
2023-02-18T05:30:19.723Z,16.38
2023-02-18T05:32:48.667Z,15.73
2023-02-18T05:35:20.511Z,17.40
2023-02-18T05:37:53.040Z,16.88
2023-02-18T05:40:22.160Z,15.93
2023-02-18T05:42:51.101Z,17.35
2023-02-18T05:45:22.476Z,18.77
2023-02-18T05:47:58.324Z,18.70
2023-02-18T05:50:35.375Z,18.05
2023-02-18T05:53:11.293Z,18.45
2023-02-18T05:55:46.443Z,17.73
2023-02-18T05:58:21.223Z,20.27
2023-02-18T06:00:53.236Z,18.90
2023-02-18T06:03:24.560Z,19.05
2023-02-18T06:05:56.488Z,18.58
2023-02-18T06:08:28.072Z,18.83
2023-02-18T06:10:59.684Z,17.90
2023-02-18T06:13:30.818Z,18.98
2023-02-18T06:15:59.800Z,18.02
2023-02-18T06:18:28.793Z,18.42
2023-02-18T06:20:57.760Z,19.35
2023-02-18T06:23:31.716Z,19.95
2023-02-18T06:26:06.545Z,18.88
2023-02-18T06:28:35.644Z,18.52
2023-02-18T06:31:06.587Z,18.42
2023-02-18T06:33:38.265Z,18.85
2023-02-18T06:36:12.150Z,18.55
2023-02-18T06:38:43.592Z,18.73
2023-02-18T06:41:15.299Z,18.58
2023-02-18T06:43:50.160Z,18.02
2023-02-18T06:46:21.466Z,17.77
2023-02-18T06:48:55.717Z,19.67
2023-02-18T06:51:28.215Z,18.00
2023-02-18T06:53:57.531Z,18.58
2023-02-18T06:56:31.498Z,18.80
2023-02-18T06:59:08.770Z,19.80
2023-02-18T07:01:40.382Z,19.15
2023-02-18T07:04:11.685Z,18.92
2023-02-18T07:06:42.771Z,17.17
2023-02-18T07:09:14.687Z,17.80
2023-02-18T07:11:53.863Z,18.73
2023-02-18T07:14:25.302Z,18.25
2023-02-18T07:16:58.558Z,17.88
2023-02-18T07:19:30.486Z,17.48
2023-02-18T07:22:02.064Z,17.60
2023-02-18T07:24:33.015Z,17.80
2023-02-18T07:27:04.936Z,16.02
2023-02-18T07:29:33.868Z,18.13
2023-02-18T07:32:08.058Z,17.63
2023-02-18T07:34:39.128Z,18.00
2023-02-18T07:37:09.921Z,16.98
2023-02-18T07:39:44.473Z,18.77
2023-02-18T07:42:14.747Z,16.95
2023-02-18T07:44:51.578Z,17.60
2023-02-18T07:47:28.044Z,19.65
2023-02-18T07:49:59.462Z,18.45
2023-02-18T07:52:31.414Z,19.13
2023-02-18T07:55:02.776Z,20.60
2023-02-18T07:57:56.376Z,20.35
2023-02-18T08:00:29.886Z,18.95
2023-02-18T08:03:01.473Z,20.17
2023-02-18T08:05:31.248Z,17.60
2023-02-18T08:08:00.538Z,20.30
2023-02-18T08:10:30.727Z,21.23
2023-02-18T08:13:04.982Z,19.80
2023-02-18T08:15:37.394Z,19.67
2023-02-18T08:18:30.619Z,18.75
2023-02-18T08:21:04.544Z,19.25
2023-02-18T08:23:33.802Z,18.60
2023-02-18T08:26:07.623Z,18.98
2023-02-18T08:28:45.457Z,16.70
2023-02-18T08:31:23.710Z,17.95
2023-02-18T08:33:57.652Z,18.00
2023-02-18T08:36:32.256Z,17.10
2023-02-18T08:39:03.415Z,15.95
2023-02-18T08:41:38.192Z,16.48
2023-02-18T08:44:13.030Z,15.43
2023-02-18T08:46:49.522Z,16.20
2023-02-18T08:49:24.675Z,15.05
2023-02-18T08:52:01.867Z,13.65
2023-02-18T08:54:31.836Z,14.50
2023-02-18T08:57:07.144Z,13.88
2023-02-18T08:59:36.393Z,14.80
2023-02-18T09:02:06.295Z,13.93
2023-02-18T09:04:35.518Z,13.48
2023-02-18T09:07:06.561Z,12.68
2023-02-18T09:09:36.537Z,13.32
2023-02-18T09:12:08.158Z,12.85
2023-02-18T09:14:44.687Z,12.93
2023-02-18T09:17:16.155Z,12.43
2023-02-18T09:19:53.767Z,12.23
2023-02-18T09:22:23.188Z,12.43
2023-02-18T09:25:00.487Z,13.50
2023-02-18T09:27:34.508Z,12.43
2023-02-18T09:30:07.247Z,13.20
2023-02-18T09:32:37.345Z,11.52
2023-02-18T09:35:09.581Z,12.90
2023-02-18T09:37:47.300Z,12.32
2023-02-18T09:40:30.290Z,13.88
2023-02-18T09:43:05.244Z,13.43
2023-02-18T09:45:35.148Z,11.45
2023-02-18T09:48:06.264Z,12.48
2023-02-18T09:50:38.996Z,12.13
2023-02-18T09:53:21.043Z,13.10
2023-02-18T09:55:54.439Z,13.20
2023-02-18T09:58:32.470Z,12.38
2023-02-18T10:01:07.130Z,12.48
2023-02-18T10:03:39.092Z,12.23
2023-02-18T10:06:40.799Z,11.55
2023-02-18T10:09:29.214Z,11.82
2023-02-18T10:12:22.866Z,12.50
2023-02-18T10:15:01.806Z,13.07
2023-02-18T10:17:34.610Z,11.73
2023-02-18T10:20:09.474Z,12.50
2023-02-18T10:22:39.931Z,11.20
2023-02-18T10:25:21.579Z,12.27
2023-02-18T10:27:53.209Z,12.57
2023-02-18T10:30:43.620Z,10.52
2023-02-18T10:33:31.745Z,11.70
2023-02-18T10:36:28.670Z,11.02
2023-02-18T10:39:17.184Z,10.60
2023-02-18T10:41:51.195Z,11.20
2023-02-18T10:44:58.493Z,10.85
2023-02-18T10:47:51.443Z,11.18
2023-02-18T10:50:44.176Z,12.65
2023-02-18T10:53:36.948Z,10.82
2023-02-18T10:56:41.864Z,10.80
2023-02-18T10:59:28.105Z,10.05
2023-02-18T11:02:19.991Z,10.90
2023-02-18T11:04:52.581Z,10.13
2023-02-18T11:07:32.505Z,10.38
2023-02-18T11:10:30.408Z,10.32
2023-02-18T11:13:03.519Z,9.90
2023-02-18T11:15:39.370Z,11.13
2023-02-18T11:18:33.306Z,9.95
2023-02-18T11:21:21.413Z,10.10
2023-02-18T11:23:55.191Z,10.32
2023-02-18T11:26:31.251Z,10.90
2023-02-18T11:29:22.172Z,9.35
2023-02-18T11:32:20.697Z,10.50
2023-02-18T11:35:26.377Z,9.55
2023-02-18T11:40:33.622Z,9.35
2023-02-18T11:43:17.329Z,9.60
2023-02-18T11:45:47.606Z,9.65
2023-02-18T11:48:30.042Z,10.20
2023-02-18T11:51:07.155Z,9.18
2023-02-18T11:53:56.639Z,10.25
2023-02-18T11:56:28.230Z,9.50
2023-02-18T11:59:03.095Z,10.43
2023-02-18T12:01:45.439Z,9.77
2023-02-18T12:04:25.012Z,9.93
2023-02-18T12:07:40.400Z,9.82
2023-02-18T12:10:33.215Z,9.60
2023-02-18T12:13:16.440Z,10.73
2023-02-18T12:16:24.605Z,10.95
2023-02-18T12:19:15.352Z,11.48
2023-02-18T12:22:10.960Z,10.10
2023-02-18T12:25:11.336Z,10.55
2023-02-18T12:28:12.858Z,11.02
2023-02-18T12:33:39.252Z,10.85
2023-02-18T12:36:28.931Z,11.13
2023-02-18T12:39:23.528Z,11.32
2023-02-18T12:42:28.642Z,11.63
2023-02-18T12:45:05.213Z,13.68
2023-02-18T12:48:08.317Z,12.23
2023-02-18T12:50:56.335Z,12.40
2023-02-18T12:53:41.023Z,12.32
2023-02-18T12:56:32.128Z,11.43
2023-02-18T12:59:24.278Z,12.45
2023-02-18T13:02:36.732Z,12.52
2023-02-18T13:05:15.130Z,12.32
2023-02-18T13:08:07.771Z,11.68
2023-02-18T13:11:01.424Z,12.52
2023-02-18T13:13:46.112Z,12.05
2023-02-18T13:16:20.841Z,11.93
2023-02-18T13:19:22.845Z,11.90
2023-02-18T13:21:56.949Z,12.07
2023-02-18T13:24:44.409Z,11.90
2023-02-18T13:27:42.033Z,12.25
2023-02-18T13:30:29.750Z,11.13
2023-02-18T13:33:27.806Z,11.20
2023-02-18T13:36:33.589Z,10.90
2023-02-18T13:39:11.398Z,11.82
2023-02-18T13:41:46.450Z,10.85
2023-02-18T13:44:26.979Z,12.38
2023-02-18T13:47:01.676Z,11.38
2023-02-18T13:49:41.856Z,12.15
2023-02-18T13:52:22.515Z,10.63
2023-02-18T13:54:52.358Z,10.85
2023-02-18T13:57:27.083Z,10.65
2023-02-18T14:00:04.974Z,10.40
2023-02-18T14:02:37.124Z,10.88
2023-02-18T14:05:54.923Z,11.00
2023-02-18T14:08:40.485Z,10.52
2023-02-18T14:11:15.801Z,10.50
2023-02-18T14:13:56.630Z,10.07
2023-02-18T14:16:26.468Z,10.73
2023-02-18T14:19:00.297Z,10.43
2023-02-18T14:21:48.040Z,10.23
2023-02-18T14:24:51.245Z,10.02
2023-02-18T14:27:25.413Z,10.27
2023-02-18T14:29:55.572Z,9.75
2023-02-18T14:32:27.494Z,10.05
2023-02-18T14:35:28.983Z,10.27
2023-02-18T14:38:33.040Z,9.45
2023-02-18T14:41:32.732Z,10.25
2023-02-18T14:44:39.966Z,8.88
2023-02-18T14:47:24.021Z,8.93
2023-02-18T14:49:55.140Z,9.35
2023-02-18T14:52:41.565Z,7.85
2023-02-18T14:55:25.045Z,9.27
2023-02-18T14:58:11.760Z,8.73
2023-02-18T15:00:45.453Z,9.63
2023-02-18T15:03:19.985Z,9.98
2023-02-18T15:05:52.084Z,8.75
2023-02-18T15:11:02.206Z,9.65
2023-02-18T15:13:45.283Z,8.55
2023-02-18T15:16:31.919Z,8.60
2023-02-18T15:19:08.391Z,9.48
2023-02-18T15:21:44.946Z,9.02
2023-02-18T15:24:34.537Z,8.27
2023-02-18T15:27:13.052Z,8.48
2023-02-18T15:29:57.692Z,9.73
2023-02-18T15:32:29.984Z,10.13
2023-02-18T15:35:03.616Z,8.88
2023-02-18T15:37:37.326Z,9.25
2023-02-18T15:40:18.545Z,9.70
2023-02-18T15:42:53.690Z,10.27
2023-02-18T15:45:48.027Z,10.02
2023-02-18T15:48:49.549Z,9.40
2023-02-18T15:51:28.611Z,10.05
2023-02-18T15:54:07.346Z,9.48
2023-02-18T15:56:43.102Z,9.20
2023-02-18T15:59:22.110Z,10.48
2023-02-18T16:02:00.345Z,9.52
2023-02-18T16:04:38.700Z,9.88
2023-02-18T16:07:33.991Z,10.55
2023-02-18T16:10:20.110Z,8.80
2023-02-18T16:13:05.744Z,9.75
2023-02-18T16:15:44.143Z,9.48
2023-02-18T16:18:36.869Z,9.73
2023-02-18T16:21:34.510Z,10.10
2023-02-18T16:24:29.985Z,9.43
2023-02-18T16:27:01.957Z,8.63
2023-02-18T16:29:43.810Z,9.57
2023-02-18T16:32:13.932Z,8.73
2023-02-18T16:34:49.291Z,9.68
2023-02-18T16:37:41.300Z,10.52
2023-02-18T16:40:36.128Z,8.77
2023-02-18T16:43:28.260Z,10.68
2023-02-18T16:46:06.569Z,8.80
2023-02-18T16:48:52.643Z,10.10
2023-02-18T16:51:36.753Z,9.35
2023-02-18T16:54:07.771Z,9.32
2023-02-18T16:56:38.372Z,9.73
2023-02-18T16:59:13.736Z,9.25
2023-02-18T17:01:46.897Z,10.25
2023-02-18T17:04:20.754Z,9.07
2023-02-18T17:06:57.280Z,9.43
2023-02-18T17:09:34.415Z,10.05
2023-02-18T17:12:06.793Z,9.18
2023-02-18T17:14:38.662Z,9.38
2023-02-18T17:17:18.592Z,9.43
2023-02-18T17:19:52.216Z,9.68
2023-02-18T17:22:22.560Z,9.35
2023-02-18T17:27:39.419Z,9.25
2023-02-18T17:30:10.261Z,10.23
2023-02-18T17:32:41.420Z,9.25
2023-02-18T17:35:24.318Z,9.02
2023-02-18T17:37:57.676Z,8.82
2023-02-18T17:40:31.968Z,8.95
2023-02-18T17:43:07.596Z,9.25
2023-02-18T17:46:06.585Z,8.82
2023-02-18T17:48:44.705Z,9.55
2023-02-18T17:51:39.525Z,9.18
2023-02-18T17:54:23.172Z,9.60
2023-02-18T17:57:10.280Z,8.88
2023-02-18T17:59:49.433Z,10.13
2023-02-18T18:02:30.095Z,9.73
2023-02-18T18:05:07.987Z,9.15
2023-02-18T18:07:42.616Z,9.38
2023-02-18T18:10:21.348Z,9.20
2023-02-18T18:13:19.041Z,9.48
2023-02-18T18:15:58.190Z,8.48
2023-02-18T18:18:33.442Z,9.10
2023-02-18T18:21:08.786Z,9.60
2023-02-18T18:23:49.349Z,9.65
2023-02-18T18:26:22.262Z,9.35
2023-02-18T18:28:56.889Z,9.40
2023-02-18T18:31:40.390Z,10.10
2023-02-18T18:34:12.342Z,10.25
2023-02-18T18:36:49.062Z,9.30
2023-02-18T18:39:26.622Z,8.60
2023-02-18T18:42:03.853Z,10.20
2023-02-18T18:44:38.805Z,9.15
2023-02-18T18:47:13.421Z,9.80
2023-02-18T18:49:53.326Z,9.85
2023-02-18T18:52:30.793Z,10.45
2023-02-18T18:55:33.357Z,10.25
2023-02-18T18:58:11.605Z,9.95
2023-02-18T19:00:44.606Z,10.57
2023-02-18T19:03:19.919Z,9.50
2023-02-18T19:05:56.124Z,9.75
2023-02-18T19:08:34.796Z,10.25
2023-02-18T19:11:12.290Z,9.48
2023-02-18T19:13:47.040Z,8.55
2023-02-18T19:16:47.051Z,9.57
2023-02-18T19:19:25.552Z,10.30
2023-02-18T19:27:44.033Z,9.80
2023-02-18T19:30:18.932Z,9.02
2023-02-18T19:33:00.601Z,10.20
2023-02-18T19:35:54.232Z,10.93
2023-02-18T19:38:31.374Z,11.02
2023-02-18T19:41:20.537Z,10.55
2023-02-18T19:43:55.292Z,10.68
2023-02-18T19:46:28.102Z,9.90
2023-02-18T19:49:01.678Z,10.70
2023-02-18T19:51:32.954Z,10.20
2023-02-18T19:54:03.941Z,10.80
2023-02-18T19:56:50.021Z,10.40
2023-02-18T19:59:24.099Z,10.40
2023-02-18T20:01:59.730Z,10.30
2023-02-18T20:04:32.867Z,10.48
2023-02-18T20:07:05.424Z,10.88
2023-02-18T20:09:40.000Z,9.27
2023-02-18T20:12:12.388Z,9.77
2023-02-18T20:14:46.244Z,10.48
2023-02-18T20:17:16.344Z,10.40
2023-02-18T20:19:52.547Z,8.80
2023-02-18T20:22:22.911Z,9.45
2023-02-18T20:24:53.646Z,8.70
2023-02-18T20:27:24.264Z,8.48
2023-02-18T20:29:56.868Z,9.43
2023-02-18T20:32:27.964Z,9.55
2023-02-18T20:34:58.153Z,9.10
2023-02-18T20:37:30.249Z,9.25
2023-02-18T20:40:03.053Z,10.73
2023-02-18T20:42:39.478Z,12.02
2023-02-18T20:45:15.695Z,12.38
2023-02-18T20:47:47.712Z,13.27
2023-02-18T20:50:17.312Z,12.80
2023-02-18T20:52:49.613Z,12.63
2023-02-18T20:55:18.711Z,12.27
2023-02-18T20:57:48.065Z,11.98
2023-02-18T21:00:23.161Z,11.75
2023-02-18T21:02:57.368Z,10.90
2023-02-18T21:05:27.103Z,10.68
2023-02-18T21:07:59.147Z,10.32
2023-02-18T21:10:33.675Z,11.85
2023-02-18T21:13:07.508Z,10.15
2023-02-18T21:15:44.507Z,10.85
2023-02-18T21:18:19.298Z,10.85
2023-02-18T21:21:11.338Z,11.52
2023-02-18T21:23:46.551Z,13.15
2023-02-18T21:26:21.485Z,12.43
2023-02-18T21:28:54.055Z,14.00
2023-02-18T21:31:31.821Z,12.63
2023-02-18T21:34:08.063Z,13.18
2023-02-18T21:36:42.007Z,13.00
2023-02-18T21:39:13.194Z,14.38
2023-02-18T21:41:45.443Z,13.18
2023-02-18T21:44:14.670Z,11.85
2023-02-18T21:46:44.187Z,10.90
2023-02-18T21:49:13.915Z,13.48
2023-02-18T21:52:00.761Z,10.82
2023-02-18T21:54:34.043Z,17.17
2023-02-18T21:57:04.818Z,12.13
2023-02-18T21:59:37.896Z,11.38
2023-02-18T22:02:15.945Z,11.52
2023-02-18T22:04:47.885Z,10.52
2023-02-18T22:07:22.627Z,9.48
2023-02-18T22:09:57.232Z,10.60
2023-02-18T22:12:32.482Z,11.95
2023-02-18T22:15:01.461Z,10.57
2023-02-18T22:17:36.137Z,11.20
2023-02-18T22:20:09.479Z,12.32
2023-02-18T22:22:44.148Z,10.63
2023-02-18T22:25:13.157Z,12.00
2023-02-18T22:27:45.397Z,12.18
2023-02-18T22:30:14.589Z,11.65
2023-02-18T22:32:49.444Z,10.40
2023-02-18T22:35:21.094Z,10.88
2023-02-18T22:37:52.409Z,11.43
2023-02-18T22:40:24.012Z,11.50
2023-02-18T22:42:55.515Z,11.80
2023-02-18T22:45:28.711Z,12.18
2023-02-18T22:48:00.440Z,12.20
2023-02-18T22:50:29.389Z,11.13
2023-02-18T22:53:05.233Z,11.85
2023-02-18T22:55:34.292Z,14.05
2023-02-18T22:58:04.428Z,13.43
2023-02-18T23:00:34.088Z,17.30
2023-02-18T23:03:03.127Z,13.93
2023-02-18T23:05:35.073Z,15.82
2023-02-18T23:08:06.049Z,15.00
2023-02-18T23:10:35.179Z,14.02
2023-02-18T23:13:04.072Z,14.18
2023-02-18T23:15:32.661Z,12.25
2023-02-18T23:18:04.533Z,12.57
2023-02-18T23:20:52.326Z,12.02
2023-02-18T23:23:26.241Z,14.40
2023-02-18T23:26:02.052Z,15.30
2023-02-18T23:28:48.027Z,12.60
2023-02-18T23:31:22.736Z,13.00
2023-02-18T23:33:58.042Z,12.77
2023-02-18T23:36:32.830Z,15.82
2023-02-18T23:39:05.432Z,12.43
2023-02-18T23:41:37.128Z,14.80
2023-02-18T23:44:15.223Z,13.93
2023-02-18T23:46:47.262Z,15.13
2023-02-18T23:49:18.166Z,17.30
2023-02-18T23:51:47.569Z,15.80
2023-02-18T23:54:18.460Z,16.02
2023-02-18T23:56:48.434Z,14.05
2023-02-18T23:59:19.540Z,14.95
